Time,TemperatureF,DewpointF,PressureIn,WindDirection,WindDirectionDegrees,WindSpeedMPH,WindSpeedGustMPH,Humidity,HourlyPrecipIn,Conditions,Clouds,dailyrainin,SolarRadiationWatts/m^2,SoftwareType,DateUTC
2013-03-09 00:01:00,43.0,32.0,-100.00,WSW,250,5.0,10.0,64,0.00,,,0.00,0.000000,,2013-03-09 10:01:00,
2013-03-09 00:11:00,43.0,32.0,-100.00,WSW,250,5.0,10.0,64,0.00,,,0.00,0.000000,,2013-03-09 10:11:00,
2013-03-09 00:21:00,43.0,32.0,-100.00,WSW,250,5.0,10.0,64,0.00,,,0.00,0.000000,,2013-03-09 10:21:00,
2013-03-09 00:31:00,43.0,32.0,-100.00,WSW,250,5.0,10.0,64,0.00,,,0.00,0.000000,,2013-03-09 10:31:00,
2013-03-09 00:52:00,46.0,42.0,-100.00,WSW,246,3.0,9.0,85,0.00,,,0.00,0.000000,,2013-03-09 10:52:00,
2013-03-09 01:01:00,46.0,42.0,-100.00,WSW,246,3.0,9.0,85,0.00,,,0.00,0.000000,,2013-03-09 11:01:00,
2013-03-09 01:11:00,46.0,42.0,-100.00,WSW,246,3.0,9.0,85,0.00,,,0.00,0.000000,,2013-03-09 11:11:00,
2013-03-09 01:21:00,46.0,42.0,-100.00,WSW,246,3.0,9.0,85,0.00,,,0.00,0.000000,,2013-03-09 11:21:00,
2013-03-09 01:31:00,46.0,42.0,-100.00,WSW,246,3.0,9.0,85,0.00,,,0.00,0.000000,,2013-03-09 11:31:00,
2013-03-09 01:52:00,44.0,34.0,-100.00,WSW,240,6.0,8.0,67,0.00,,,0.00,0.000000,,2013-03-09 11:52:00,
2013-03-09 02:01:00,44.0,34.0,-100.00,WSW,240,6.0,8.0,67,0.00,,,0.00,0.000000,,2013-03-09 12:01:00,
2013-03-09 02:11:00,44.0,34.0,-100.00,WSW,240,6.0,8.0,67,0.00,,,0.00,0.000000,,2013-03-09 12:11:00,
2013-03-09 02:21:00,44.0,34.0,-100.00,WSW,240,6.0,8.0,67,0.00,,,0.00,0.000000,,2013-03-09 12:21:00,
2013-03-09 02:31:00,44.0,34.0,-100.00,WSW,240,6.0,8.0,67,0.00,,,0.00,0.000000,,2013-03-09 12:31:00,
2013-03-09 03:02:00,42.0,35.0,-100.00,SW,236,4.0,11.0,76,0.00,,,0.00,0.000000,,2013-03-09 13:02:00,
2013-03-09 03:11:00,42.0,35.0,-100.00,SW,236,4.0,11.0,76,0.00,,,0.00,0.000000,,2013-03-09 13:11:00,
2013-03-09 03:21:00,42.0,35.0,-100.00,SW,236,4.0,11.0,76,0.00,,,0.00,0.000000,,2013-03-09 13:21:00,
2013-03-09 03:31:00,42.0,35.0,-100.00,SW,236,4.0,11.0,76,0.00,,,0.00,0.000000,,2013-03-09 13:31:00,
2013-03-09 03:52:00,40.0,36.0,-100.00,West,260,4.0,8.0,87,0.00,,,0.00,0.000000,,2013-03-09 13:52:00,
2013-03-09 04:01:00,40.0,36.0,-100.00,West,260,4.0,8.0,87,0.00,,,0.00,0.000000,,2013-03-09 14:01:00,
2013-03-09 04:11:00,40.0,36.0,-100.00,West,260,4.0,8.0,87,0.00,,,0.00,0.000000,,2013-03-09 14:11:00,
2013-03-09 04:21:00,40.0,36.0,-100.00,West,260,4.0,8.0,87,0.00,,,0.00,0.000000,,2013-03-09 14:21:00,
2013-03-09 04:31:00,40.0,36.0,-100.00,West,260,4.0,8.0,87,0.00,,,0.00,0.000000,,2013-03-09 14:31:00,
2013-03-09 05:01:00,43.0,38.0,-100.00,WSW,243,5.0,7.0,84,0.00,,,0.00,0.000000,,2013-03-09 15:01:00,
2013-03-09 05:11:00,43.0,38.0,-100.00,WSW,243,5.0,7.0,84,0.00,,,0.00,0.000000,,2013-03-09 15:11:00,
2013-03-09 05:22:00,43.0,38.0,-100.00,WSW,243,5.0,7.0,84,0.00,,,0.00,0.000000,,2013-03-09 15:22:00,
2013-03-09 05:31:00,43.0,38.0,-100.00,WSW,243,5.0,7.0,84,0.00,,,0.00,0.000000,,2013-03-09 15:31:00,
2013-03-09 05:52:00,43.0,38.0,-100.00,SW,225,5.0,8.0,82,0.00,,,0.00,0.000000,,2013-03-09 15:52:00,
2013-03-09 06:01:00,43.0,38.0,-100.00,SW,225,5.0,8.0,82,0.00,,,0.00,0.000000,,2013-03-09 16:01:00,
2013-03-09 06:11:00,43.0,38.0,-100.00,SW,225,5.0,8.0,82,0.00,,,0.00,0.000000,,2013-03-09 16:11:00,
2013-03-09 06:21:00,43.0,38.0,-100.00,SW,225,5.0,8.0,82,0.00,,,0.00,0.000000,,2013-03-09 16:21:00,
2013-03-09 06:31:00,43.0,38.0,-100.00,SW,225,5.0,8.0,82,0.00,,,0.00,0.000000,,2013-03-09 16:31:00,
2013-03-09 07:01:00,43.0,41.0,-100.00,WSW,237,7.0,10.0,91,0.00,,,0.00,0.000000,,2013-03-09 17:01:00,
2013-03-09 07:11:00,43.0,41.0,-100.00,WSW,237,7.0,10.0,91,0.00,,,0.00,0.000000,,2013-03-09 17:11:00,
2013-03-09 07:22:00,43.0,41.0,-100.00,WSW,237,7.0,10.0,91,0.00,,,0.00,0.000000,,2013-03-09 17:22:00,
2013-03-09 07:32:00,43.0,41.0,-100.00,WSW,237,7.0,10.0,91,0.00,,,0.00,0.000000,,2013-03-09 17:32:00,
2013-03-09 07:52:00,52.0,43.0,-100.00,SW,234,8.0,13.0,71,0.00,,,0.00,112.000000,,2013-03-09 17:52:00,
2013-03-09 08:01:00,52.0,43.0,-100.00,SW,234,8.0,13.0,71,0.00,,,0.00,112.000000,,2013-03-09 18:01:00,
2013-03-09 08:11:00,52.0,43.0,-100.00,SW,234,8.0,13.0,71,0.00,,,0.00,112.000000,,2013-03-09 18:11:00,
2013-03-09 08:21:00,52.0,43.0,-100.00,SW,234,8.0,13.0,71,0.00,,,0.00,112.000000,,2013-03-09 18:21:00,
2013-03-09 08:31:00,52.0,43.0,-100.00,SW,234,8.0,13.0,71,0.00,,,0.00,112.000000,,2013-03-09 18:31:00,
2013-03-09 08:52:00,59.0,44.0,-100.00,SSW,194,8.0,17.0,57,0.00,,,0.00,380.000000,,2013-03-09 18:52:00,
2013-03-09 09:01:00,59.0,44.0,-100.00,SSW,194,8.0,17.0,57,0.00,,,0.00,380.000000,,2013-03-09 19:01:00,
2013-03-09 09:11:00,59.0,44.0,-100.00,SSW,194,8.0,17.0,57,0.00,,,0.00,380.000000,,2013-03-09 19:11:00,
2013-03-09 09:22:00,59.0,44.0,-100.00,SSW,194,8.0,17.0,57,0.00,,,0.00,380.000000,,2013-03-09 19:22:00,
2013-03-09 09:31:00,59.0,44.0,-100.00,SSW,194,8.0,17.0,57,0.00,,,0.00,380.000000,,2013-03-09 19:31:00,
2013-03-09 10:01:00,60.0,48.0,-100.00,South,184,8.0,16.0,65,0.00,,,0.00,528.000000,,2013-03-09 20:01:00,
2013-03-09 10:11:00,60.0,48.0,-100.00,South,184,8.0,16.0,65,0.00,,,0.00,528.000000,,2013-03-09 20:11:00,
2013-03-09 10:21:00,60.0,48.0,-100.00,South,184,8.0,16.0,65,0.00,,,0.00,528.000000,,2013-03-09 20:21:00,
2013-03-09 10:31:00,60.0,48.0,-100.00,South,184,8.0,16.0,65,0.00,,,0.00,528.000000,,2013-03-09 20:31:00,
2013-03-09 10:52:00,60.0,51.0,-100.00,South,177,9.0,17.0,71,0.00,,,0.00,475.000000,,2013-03-09 20:52:00,
2013-03-09 11:01:00,60.0,51.0,-100.00,South,177,9.0,17.0,71,0.00,,,0.00,475.000000,,2013-03-09 21:01:00,
2013-03-09 11:11:00,60.0,51.0,-100.00,South,177,9.0,17.0,71,0.00,,,0.00,475.000000,,2013-03-09 21:11:00,
2013-03-09 11:21:00,60.0,51.0,-100.00,South,177,9.0,17.0,71,0.00,,,0.00,475.000000,,2013-03-09 21:21:00,
2013-03-09 11:31:00,60.0,51.0,-100.00,South,177,9.0,17.0,71,0.00,,,0.00,475.000000,,2013-03-09 21:31:00,
2013-03-09 11:52:00,67.0,51.0,-100.00,South,187,10.0,21.0,56,0.00,,,0.00,1008.000000,,2013-03-09 21:52:00,
2013-03-09 12:01:00,67.0,51.0,-100.00,South,187,10.0,21.0,56,0.00,,,0.00,1008.000000,,2013-03-09 22:01:00,
2013-03-09 12:11:00,67.0,51.0,-100.00,South,187,10.0,21.0,56,0.00,,,0.00,1008.000000,,2013-03-09 22:11:00,
2013-03-09 12:21:00,67.0,51.0,-100.00,South,187,10.0,21.0,56,0.00,,,0.00,1008.000000,,2013-03-09 22:21:00,
2013-03-09 12:32:00,67.0,51.0,-100.00,South,187,10.0,21.0,56,0.00,,,0.00,1008.000000,,2013-03-09 22:32:00,
2013-03-09 13:01:00,59.0,49.0,-100.00,South,188,10.0,21.0,70,0.00,,,0.00,625.000000,,2013-03-09 23:01:00,
2013-03-09 13:11:00,59.0,49.0,-100.00,South,188,10.0,21.0,70,0.00,,,0.00,625.000000,,2013-03-09 23:11:00,
2013-03-09 13:21:00,59.0,49.0,-100.00,South,188,10.0,21.0,70,0.00,,,0.00,625.000000,,2013-03-09 23:21:00,
2013-03-09 13:31:00,59.0,49.0,-100.00,South,188,10.0,21.0,70,0.00,,,0.00,625.000000,,2013-03-09 23:31:00,
2013-03-09 13:52:00,55.0,51.0,-100.00,South,185,9.0,18.0,87,0.00,,,0.00,339.000000,,2013-03-09 23:52:00,
2013-03-09 14:01:00,55.0,51.0,-100.00,South,185,9.0,18.0,87,0.00,,,0.00,339.000000,,2013-03-10 00:01:00,
2013-03-09 14:11:00,55.0,51.0,-100.00,South,185,9.0,18.0,87,0.00,,,0.00,339.000000,,2013-03-10 00:11:00,
2013-03-09 14:22:00,55.0,51.0,-100.00,South,185,9.0,18.0,87,0.00,,,0.00,339.000000,,2013-03-10 00:22:00,
2013-03-09 14:31:00,55.0,51.0,-100.00,South,185,9.0,18.0,87,0.00,,,0.00,339.000000,,2013-03-10 00:31:00,
2013-03-09 15:01:00,56.0,54.0,-100.00,SSW,209,9.0,18.0,94,0.03,,,0.03,237.000000,,2013-03-10 01:01:00,
2013-03-09 15:11:00,56.0,54.0,-100.00,SSW,209,9.0,18.0,94,0.03,,,0.03,237.000000,,2013-03-10 01:11:00,
2013-03-09 15:21:00,56.0,54.0,-100.00,SSW,209,9.0,18.0,94,0.03,,,0.03,237.000000,,2013-03-10 01:21:00,
2013-03-09 15:31:00,56.0,54.0,-100.00,SSW,209,9.0,18.0,94,0.03,,,0.03,237.000000,,2013-03-10 01:31:00,
2013-03-09 15:52:00,57.0,53.0,-100.00,SSW,210,8.0,17.0,88,0.01,,,-99.99,395.000000,,2013-03-10 01:52:00,
2013-03-09 16:01:00,57.0,53.0,-100.00,SSW,210,8.0,17.0,88,0.01,,,-99.99,395.000000,,2013-03-10 02:01:00,
2013-03-09 16:11:00,57.0,53.0,-100.00,SSW,210,8.0,17.0,88,0.01,,,-99.99,395.000000,,2013-03-10 02:11:00,
2013-03-09 16:22:00,57.0,53.0,-100.00,SSW,210,8.0,17.0,88,0.01,,,-99.99,395.000000,,2013-03-10 02:22:00,
2013-03-09 16:31:00,57.0,53.0,-100.00,SSW,210,8.0,17.0,88,0.01,,,-99.99,395.000000,,2013-03-10 02:31:00,
2013-03-09 16:52:00,52.0,50.0,-100.00,SW,214,5.0,15.0,93,0.00,,,-99.99,143.000000,,2013-03-10 02:52:00,
2013-03-09 17:01:00,52.0,50.0,-100.00,SW,214,5.0,15.0,93,0.00,,,-99.99,143.000000,,2013-03-10 03:01:00,
2013-03-09 17:11:00,52.0,50.0,-100.00,SW,214,5.0,15.0,93,0.00,,,-99.99,143.000000,,2013-03-10 03:11:00,
2013-03-09 17:21:00,52.0,50.0,-100.00,SW,214,5.0,15.0,93,0.00,,,-99.99,143.000000,,2013-03-10 03:21:00,
2013-03-09 17:31:00,52.0,50.0,-100.00,SW,214,5.0,15.0,93,0.00,,,-99.99,143.000000,,2013-03-10 03:31:00,
2013-03-09 18:01:00,54.0,52.0,-100.00,SSW,206,5.0,13.0,92,0.00,,,0.04,92.000000,,2013-03-10 04:01:00,
2013-03-09 18:11:00,54.0,52.0,-100.00,SSW,206,5.0,13.0,92,0.00,,,0.04,92.000000,,2013-03-10 04:11:00,
2013-03-09 18:21:00,54.0,52.0,-100.00,SSW,206,5.0,13.0,92,0.00,,,0.04,92.000000,,2013-03-10 04:21:00,
2013-03-09 18:31:00,54.0,52.0,-100.00,SSW,206,5.0,13.0,92,0.00,,,0.04,92.000000,,2013-03-10 04:31:00,
2013-03-09 18:52:00,51.0,48.0,-100.00,South,178,4.0,11.0,91,0.00,,,0.04,46.000000,,2013-03-10 04:52:00,
2013-03-09 19:01:00,51.0,48.0,-100.00,South,178,4.0,11.0,91,0.00,,,0.04,46.000000,,2013-03-10 05:01:00,
2013-03-09 19:11:00,51.0,48.0,-100.00,South,178,4.0,11.0,91,0.00,,,0.04,46.000000,,2013-03-10 05:11:00,
2013-03-09 19:21:00,51.0,48.0,-100.00,South,178,4.0,11.0,91,0.00,,,0.04,46.000000,,2013-03-10 05:21:00,
2013-03-09 19:31:00,51.0,48.0,-100.00,South,178,4.0,11.0,91,0.00,,,0.04,46.000000,,2013-03-10 05:31:00,
2013-03-09 19:52:00,50.0,48.0,-100.00,SSW,211,5.0,11.0,94,0.00,,,0.04,0.000000,,2013-03-10 05:52:00,
2013-03-09 20:01:00,50.0,48.0,-100.00,SSW,211,5.0,11.0,94,0.00,,,0.04,0.000000,,2013-03-10 06:01:00,
2013-03-09 20:11:00,50.0,48.0,-100.00,SSW,211,5.0,11.0,94,0.00,,,0.04,0.000000,,2013-03-10 06:11:00,
2013-03-09 20:21:00,50.0,48.0,-100.00,SSW,211,5.0,11.0,94,0.00,,,0.04,0.000000,,2013-03-10 06:21:00,
2013-03-09 20:31:00,50.0,48.0,-100.00,SSW,211,5.0,11.0,94,0.00,,,0.04,0.000000,,2013-03-10 06:31:00,
2013-03-09 20:52:00,48.0,46.0,-100.00,SSW,207,3.0,10.0,94,0.00,,,0.04,0.000000,,2013-03-10 06:52:00,
2013-03-09 21:01:00,48.0,46.0,-100.00,SSW,207,3.0,10.0,94,0.00,,,0.04,0.000000,,2013-03-10 07:01:00,
2013-03-09 21:11:00,48.0,46.0,-100.00,SSW,207,3.0,10.0,94,0.00,,,0.04,0.000000,,2013-03-10 07:11:00,
2013-03-09 21:21:00,48.0,46.0,-100.00,SSW,207,3.0,10.0,94,0.00,,,0.04,0.000000,,2013-03-10 07:21:00,
2013-03-09 21:31:00,48.0,46.0,-100.00,SSW,207,3.0,10.0,94,0.00,,,0.04,0.000000,,2013-03-10 07:31:00,
2013-03-09 21:52:00,45.0,44.0,-100.00,WSW,241,4.0,7.0,95,0.00,,,0.04,0.000000,,2013-03-10 07:52:00,
2013-03-09 22:01:00,45.0,44.0,-100.00,WSW,241,4.0,7.0,95,0.00,,,0.04,0.000000,,2013-03-10 08:01:00,
2013-03-09 22:11:00,45.0,44.0,-100.00,WSW,241,4.0,7.0,95,0.00,,,0.04,0.000000,,2013-03-10 08:11:00,
2013-03-09 22:21:00,45.0,44.0,-100.00,WSW,241,4.0,7.0,95,0.00,,,0.04,0.000000,,2013-03-10 08:21:00,
2013-03-09 22:31:00,45.0,44.0,-100.00,WSW,241,4.0,7.0,95,0.00,,,0.04,0.000000,,2013-03-10 08:31:00,
2013-03-09 23:01:00,48.0,47.0,-100.00,WSW,243,4.0,7.0,96,0.00,,,0.04,0.000000,,2013-03-10 09:01:00,
2013-03-09 23:11:00,48.0,47.0,-100.00,WSW,243,4.0,7.0,96,0.00,,,0.04,0.000000,,2013-03-10 09:11:00,
2013-03-09 23:21:00,48.0,47.0,-100.00,WSW,243,4.0,7.0,96,0.00,,,0.04,0.000000,,2013-03-10 09:21:00,
2013-03-09 23:31:00,48.0,47.0,-100.00,WSW,243,4.0,7.0,96,0.00,,,0.04,0.000000,,2013-03-10 09:31:00,